Time;durP1;ratioP1;P1;durP2;ratioP2;P2;SDS_P1;SDS_P2;PMS_P1;PMS_P2;Temp;Humidity;BMP_temperature;BMP_pressure;BME280_temperature;BME280_humidity;BME280_pressure;Samples;Min_cycle;Max_cycle;Signal;HPM_P1;HPM_P2
2022/07/07 00:00:00;;;;;;;8.38;4.43;;;19.50;69.80;;;;;;5116287;28;20504;-74
2022/07/07 00:02:26;;;;;;;7.57;4.90;;;19.50;70.30;;;;;;5116311;28;20072;-74
2022/07/07 00:04:52;;;;;;;8.90;4.93;;;19.50;70.10;;;;;;5116221;28;20043;-74
2022/07/07 00:07:19;;;;;;;6.95;4.63;;;19.50;70.30;;;;;;5116200;28;20021;-74
2022/07/07 00:09:45;;;;;;;8.63;4.25;;;19.50;70.40;;;;;;5098415;28;20031;-74
2022/07/07 00:12:10;;;;;;;8.02;4.53;;;19.50;70.40;;;;;;5116108;28;20020;-74
2022/07/07 00:14:36;;;;;;;10.63;5.00;;;19.50;70.60;;;;;;5115978;28;20016;-74
2022/07/07 00:17:03;;;;;;;12.30;4.95;;;19.50;70.70;;;;;;5116006;28;20024;-74
2022/07/07 00:19:29;;;;;;;9.85;5.07;;;19.50;70.70;;;;;;5115969;28;20024;-74
2022/07/07 00:21:54;;;;;;;13.63;5.22;;;19.50;70.80;;;;;;5115936;28;20030;-74
2022/07/07 00:24:20;;;;;;;10.40;5.05;;;19.50;71.30;;;;;;5115989;28;20028;-74
2022/07/07 00:26:45;;;;;;;7.72;4.88;;;19.50;70.90;;;;;;5115846;28;20036;-74
2022/07/07 00:29:11;;;;;;;10.43;5.75;;;19.50;71.00;;;;;;5115772;28;20024;-74
2022/07/07 00:31:37;;;;;;;10.10;5.75;;;19.50;71.10;;;;;;5115730;28;20028;-74
2022/07/07 00:34:03;;;;;;;8.65;5.18;;;19.50;71.10;;;;;;5115679;28;20036;-74
2022/07/07 00:36:28;;;;;;;8.38;4.80;;;19.50;70.80;;;;;;5115584;28;20027;-74
2022/07/07 00:38:54;;;;;;;9.68;5.32;;;19.50;70.90;;;;;;5115575;28;20076;-74
2022/07/07 00:41:20;;;;;;;11.98;6.03;;;19.50;70.80;;;;;;5115517;28;20034;-74
2022/07/07 00:43:45;;;;;;;12.57;5.78;;;19.50;70.70;;;;;;5115638;28;20024;-74
2022/07/07 00:46:12;;;;;;;10.35;5.78;;;19.50;71.00;;;;;;5115464;28;20032;-74
2022/07/07 00:48:39;;;;;;;9.48;5.40;;;19.40;71.10;;;;;;5115021;28;20046;-74
2022/07/07 00:51:06;;;;;;;8.98;5.65;;;19.40;71.20;;;;;;5114827;28;20036;-74
2022/07/07 00:53:32;;;;;;;10.65;6.05;;;19.50;71.30;;;;;;5115325;28;20020;-74
2022/07/07 00:55:58;;;;;;;9.02;5.10;;;19.40;71.20;;;;;;5115039;28;20044;-74
2022/07/07 00:58:23;;;;;;;10.05;5.60;;;19.40;71.40;;;;;;5115354;28;20095;-74
2022/07/07 01:00:50;;;;;;;10.73;5.70;;;19.40;72.30;;;;;;5115143;28;20035;-74
2022/07/07 01:03:15;;;;;;;9.85;5.38;;;19.40;71.70;;;;;;5114838;28;20020;-74
2022/07/07 01:05:47;;;;;;;10.25;5.40;;;19.40;71.50;;;;;;5115094;28;20028;-74
2022/07/07 01:08:15;;;;;;;8.65;5.07;;;19.40;71.80;;;;;;5097386;28;20035;-74
2022/07/07 01:10:44;;;;;;;8.73;5.55;;;19.40;71.80;;;;;;5114988;28;20030;-74
2022/07/07 01:13:11;;;;;;;9.45;5.63;;;19.30;71.60;;;;;;5114979;28;20036;-74
2022/07/07 01:15:37;;;;;;;8.40;5.00;;;19.40;71.70;;;;;;5114950;28;20115;-74
2022/07/07 01:18:03;;;;;;;8.85;5.20;;;19.40;71.60;;;;;;5114946;28;20029;-74
2022/07/07 01:20:29;;;;;;;9.38;5.38;;;19.40;71.50;;;;;;5114785;28;20039;-74
2022/07/07 01:22:55;;;;;;;9.93;5.57;;;19.40;71.70;;;;;;5114718;28;20020;-74
2022/07/07 01:25:22;;;;;;;10.20;5.45;;;19.50;71.60;;;;;;5114706;28;20028;-74
2022/07/07 01:27:49;;;;;;;8.63;5.20;;;19.50;71.70;;;;;;5114543;28;20049;-74
2022/07/07 01:30:15;;;;;;;8.27;4.78;;;19.40;72.00;;;;;;5114567;28;20023;-74
2022/07/07 01:32:41;;;;;;;9.07;5.13;;;19.50;72.00;;;;;;5114565;28;20371;-74
2022/07/07 01:35:08;;;;;;;7.38;4.80;;;19.40;71.90;;;;;;5114393;28;20028;-74
2022/07/07 01:37:34;;;;;;;8.98;5.30;;;19.40;72.10;;;;;;5114446;28;20028;-74
2022/07/07 01:40:00;;;;;;;10.75;5.15;;;19.30;72.60;;;;;;5114453;28;20043;-74
2022/07/07 01:42:26;;;;;;;11.52;5.20;;;19.30;72.50;;;;;;5114505;28;20451;-74
2022/07/07 01:44:52;;;;;;;10.93;5.53;;;19.40;72.40;;;;;;5096273;28;20028;-74
2022/07/07 01:47:19;;;;;;;8.05;4.90;;;19.40;73.20;;;;;;5114303;28;20066;-74
2022/07/07 01:49:45;;;;;;;9.95;5.00;;;19.40;72.50;;;;;;5096347;28;20443;-74
2022/07/07 01:52:11;;;;;;;8.45;4.97;;;19.40;72.30;;;;;;5114211;28;20024;-74
2022/07/07 01:54:38;;;;;;;8.20;4.88;;;19.50;72.60;;;;;;5113975;28;20040;-74
2022/07/07 01:57:05;;;;;;;8.40;4.72;;;19.40;72.50;;;;;;5096198;28;20020;-74
2022/07/07 01:59:31;;;;;;;8.90;4.43;;;19.40;73.00;;;;;;5114037;28;20084;-74
2022/07/07 02:01:57;;;;;;;8.63;4.72;;;19.40;72.60;;;;;;5096047;28;20024;-74
2022/07/07 02:04:23;;;;;;;8.25;4.75;;;19.50;72.50;;;;;;5113979;28;20107;-74
2022/07/07 02:06:48;;;;;;;8.63;4.53;;;19.50;72.40;;;;;;5113925;28;20027;-74
2022/07/07 02:09:14;;;;;;;9.73;5.00;;;19.50;72.50;;;;;;5113870;28;20038;-74
2022/07/07 02:11:40;;;;;;;8.50;4.68;;;19.60;72.40;;;;;;5113886;28;20028;-74
2022/07/07 02:14:06;;;;;;;9.32;5.13;;;19.50;72.50;;;;;;5113816;28;20081;-74
2022/07/07 02:16:33;;;;;;;8.27;4.63;;;19.60;72.50;;;;;;5113749;28;20032;-73
2022/07/07 02:19:06;;;;;;;7.53;4.50;;;19.60;72.40;;;;;;5113755;28;20061;-73
2022/07/07 02:21:32;;;;;;;;;;;19.60;72.40;;;;;;5114348;28;20017;-73
2022/07/07 02:23:58;;;;;;;9.07;4.60;;;19.60;72.70;;;;;;5113718;28;19904;-73
2022/07/07 02:26:24;;;;;;;6.88;4.53;;;19.50;72.50;;;;;;5113682;28;20055;-73
2022/07/07 02:28:49;;;;;;;7.93;4.53;;;19.60;72.60;;;;;;5113549;28;20024;-74
2022/07/07 02:31:15;;;;;;;6.20;4.35;;;19.60;72.70;;;;;;5113640;28;20020;-74
2022/07/07 02:33:42;;;;;;;7.57;4.50;;;19.60;72.60;;;;;;5113576;28;20039;-74
2022/07/07 02:36:08;;;;;;;8.68;4.05;;;19.60;72.70;;;;;;5113494;28;20050;-74
2022/07/07 02:38:35;;;;;;;6.00;4.10;;;19.70;72.70;;;;;;5113549;28;20026;-74
2022/07/07 02:41:02;;;;;;;7.13;3.92;;;19.60;73.00;;;;;;5113531;28;20028;-74
2022/07/07 02:43:27;;;;;;;8.27;3.72;;;19.60;72.80;;;;;;5113487;28;20101;-75
2022/07/07 02:45:53;;;;;;;7.93;4.03;;;19.70;72.90;;;;;;5113470;28;20024;-74
2022/07/07 02:48:21;;;;;;;6.70;3.70;;;19.70;72.60;;;;;;5113440;28;20054;-74
2022/07/07 02:50:47;;;;;;;8.90;3.90;;;19.70;72.50;;;;;;5095551;28;20024;-74
2022/07/07 02:53:13;;;;;;;5.50;3.60;;;19.70;72.50;;;;;;5113378;28;20483;-74
2022/07/07 02:55:39;;;;;;;7.47;4.15;;;19.80;72.90;;;;;;5113127;28;20035;-74
2022/07/07 02:58:07;;;;;;;7.90;4.22;;;19.70;73.70;;;;;;5095653;28;20024;-75
2022/07/07 03:00:33;;;;;;;6.47;4.28;;;19.70;73.90;;;;;;5113350;28;20108;-74
2022/07/07 03:03:00;;;;;;;7.13;4.00;;;19.70;74.20;;;;;;5113322;28;20039;-74
2022/07/07 03:05:26;;;;;;;7.68;4.07;;;19.80;74.70;;;;;;5113301;28;20035;-74
2022/07/07 03:07:52;;;;;;;5.82;3.47;;;19.70;74.90;;;;;;5113278;28;20024;-74
2022/07/07 03:10:17;;;;;;;4.65;2.67;;;19.70;74.90;;;;;;5095613;28;20057;-74
2022/07/07 03:12:43;;;;;;;5.82;2.47;;;19.70;74.60;;;;;;5114272;28;20087;-74
2022/07/07 03:15:09;;;;;;;3.00;2.05;;;19.60;74.60;;;;;;5117311;28;20028;-74
2022/07/07 03:17:35;;;;;;;3.25;2.13;;;19.50;74.40;;;;;;5117258;28;20052;-74
2022/07/07 03:20:02;;;;;;;4.50;2.17;;;19.50;74.50;;;;;;5099349;28;20020;-74
2022/07/07 03:22:28;;;;;;;2.72;1.67;;;19.40;74.40;;;;;;5117193;28;20035;-75
2022/07/07 03:24:53;;;;;;;2.15;1.73;;;19.40;74.00;;;;;;5117044;28;20103;-74
2022/07/07 03:27:19;;;;;;;2.63;1.50;;;19.40;73.80;;;;;;5117009;28;20028;-74
2022/07/07 03:29:45;;;;;;;2.22;1.67;;;19.40;73.70;;;;;;5098917;28;20096;-74
2022/07/07 03:32:11;;;;;;;2.35;1.70;;;19.40;73.50;;;;;;5116877;28;20028;-73
2022/07/07 03:34:36;;;;;;;3.65;1.60;;;19.40;73.40;;;;;;5116819;28;20067;-74
2022/07/07 03:37:02;;;;;;;2.42;1.60;;;19.40;73.40;;;;;;5116845;28;20024;-74
2022/07/07 03:39:28;;;;;;;3.17;2.05;;;19.30;73.70;;;;;;5116702;28;20024;-74
2022/07/07 03:41:54;;;;;;;3.05;1.65;;;19.30;74.20;;;;;;5116841;28;20035;-74
2022/07/07 03:44:19;;;;;;;3.08;1.52;;;19.10;74.50;;;;;;5116808;28;20020;-74
2022/07/07 03:46:45;;;;;;;3.45;2.00;;;19.10;74.50;;;;;;5116645;28;20024;-75
2022/07/07 03:49:11;;;;;;;3.42;2.00;;;19.10;74.80;;;;;;5098668;28;20039;-75
2022/07/07 03:51:37;;;;;;;2.70;1.60;;;19.10;75.20;;;;;;5116549;28;20058;-74
2022/07/07 03:54:03;;;;;;;2.80;2.10;;;19.00;75.10;;;;;;5116408;28;20020;-74
2022/07/07 03:56:28;;;;;;;3.20;2.10;;;19.00;75.70;;;;;;5098501;28;20033;-75
2022/07/07 03:58:54;;;;;;;3.25;1.70;;;18.90;76.10;;;;;;5116401;28;20044;-75
2022/07/07 04:01:20;;;;;;;2.92;1.98;;;18.90;76.10;;;;;;5116387;28;20028;-75
2022/07/07 04:03:45;;;;;;;3.05;2.03;;;18.90;76.10;;;;;;5116346;28;20025;-75
2022/07/07 04:06:11;;;;;;;2.67;2.05;;;18.80;76.70;;;;;;5116276;28;20040;-75
2022/07/07 04:08:37;;;;;;;3.53;1.80;;;18.80;77.10;;;;;;5116234;28;20031;-75
2022/07/07 04:11:03;;;;;;;4.57;1.92;;;18.80;77.00;;;;;;5116156;28;20050;-75
2022/07/07 04:13:28;;;;;;;2.80;2.00;;;18.70;77.30;;;;;;5116161;28;20053;-75
2022/07/07 04:15:56;;;;;;;3.83;2.33;;;18.70;78.00;;;;;;5115975;28;20111;-75
2022/07/07 04:18:21;;;;;;;3.55;2.25;;;18.70;77.80;;;;;;5116050;28;20016;-75
2022/07/07 04:20:47;;;;;;;3.00;2.20;;;18.70;78.10;;;;;;5116003;28;20380;-75
2022/07/07 04:23:12;;;;;;;3.13;2.17;;;18.70;78.30;;;;;;5098070;28;20028;-75
2022/07/07 04:25:38;;;;;;;3.50;2.50;;;18.70;78.80;;;;;;5115925;28;20032;-75
2022/07/07 04:28:04;;;;;;;3.85;2.63;;;18.70;78.70;;;;;;5115774;28;20050;-75
2022/07/07 04:30:29;;;;;;;6.40;2.50;;;18.70;79.10;;;;;;5115816;28;20032;-75
2022/07/07 04:32:55;;;;;;;3.50;2.40;;;18.70;78.90;;;;;;5097999;28;20032;-75
2022/07/07 04:35:20;;;;;;;3.83;2.30;;;18.70;78.60;;;;;;5115634;28;20031;-75
2022/07/07 04:37:46;;;;;;;5.13;2.38;;;18.70;78.90;;;;;;5115668;28;20402;-75
2022/07/07 04:40:12;;;;;;;3.53;2.60;;;18.70;79.00;;;;;;5115616;28;20016;-75
2022/07/07 04:42:37;;;;;;;4.05;2.60;;;18.70;79.20;;;;;;5115554;28;20024;-74
2022/07/07 04:45:04;;;;;;;3.75;2.20;;;18.70;79.60;;;;;;5115641;28;20040;-75
2022/07/07 04:47:29;;;;;;;3.53;2.33;;;18.70;79.70;;;;;;5115616;28;20024;-75
2022/07/07 04:49:55;;;;;;;4.75;2.50;;;18.70;79.60;;;;;;5115427;28;20039;-74
2022/07/07 04:52:20;;;;;;;3.83;2.15;;;18.70;80.00;;;;;;5115370;28;20028;-74
2022/07/07 04:54:46;;;;;;;5.82;2.53;;;18.70;80.10;;;;;;5115100;28;20079;-75
2022/07/07 04:57:11;;;;;;;3.17;2.42;;;18.70;79.90;;;;;;5115257;28;20031;-75
2022/07/07 04:59:37;;;;;;;5.53;2.30;;;18.70;79.80;;;;;;5115219;28;20024;-75
2022/07/07 05:02:03;;;;;;;3.53;2.20;;;18.60;80.30;;;;;;5115169;28;20024;-75
2022/07/07 05:04:29;;;;;;;5.82;1.92;;;18.70;80.40;;;;;;5115118;28;20089;-75
2022/07/07 05:06:54;;;;;;;3.80;2.10;;;18.70;80.10;;;;;;5115055;28;20032;-75
2022/07/07 05:09:20;;;;;;;2.38;1.65;;;18.70;79.80;;;;;;5115035;28;20066;-74
2022/07/07 05:11:45;;;;;;;2.67;1.75;;;18.70;79.70;;;;;;5114980;28;20032;-74
2022/07/07 05:14:11;;;;;;;2.58;1.80;;;18.70;79.40;;;;;;5114951;28;20087;-74
2022/07/07 05:16:38;;;;;;;2.78;1.70;;;18.70;79.60;;;;;;5114823;28;20098;-74
2022/07/07 05:19:04;;;;;;;2.17;1.63;;;18.70;79.60;;;;;;5114895;28;20046;-74
2022/07/07 05:21:29;;;;;;;2.75;1.58;;;18.70;79.60;;;;;;5114764;28;20024;-74
2022/07/07 05:23:55;;;;;;;3.78;1.70;;;18.70;79.40;;;;;;5096899;28;20141;-74
2022/07/07 05:26:20;;;;;;;3.33;1.45;;;18.70;79.20;;;;;;5114702;28;20036;-75
2022/07/07 05:28:46;;;;;;;3.35;1.70;;;18.70;78.50;;;;;;5114618;28;20024;-74
2022/07/07 05:31:14;;;;;;;4.10;1.48;;;18.70;78.80;;;;;;5114488;28;20035;-74
2022/07/07 05:33:41;;;;;;;3.67;1.48;;;18.70;78.60;;;;;;5114579;28;20031;-75
2022/07/07 05:36:07;;;;;;;3.45;1.33;;;18.80;78.40;;;;;;5113952;28;20024;-75
2022/07/07 05:38:34;;;;;;;5.22;1.30;;;18.80;78.30;;;;;;5114443;28;20020;-74
2022/07/07 05:41:00;;;;;;;5.25;1.30;;;18.80;78.10;;;;;;5114475;28;20080;-74
2022/07/07 05:43:25;;;;;;;2.80;1.20;;;18.90;77.90;;;;;;5114417;28;20142;-74
2022/07/07 05:45:51;;;;;;;3.97;1.27;;;18.80;77.70;;;;;;5114353;28;20031;-74
2022/07/07 05:48:17;;;;;;;1.73;1.00;;;18.90;77.80;;;;;;5114230;28;20028;-75
2022/07/07 05:50:43;;;;;;;5.65;1.20;;;18.90;77.40;;;;;;5096260;28;20104;-75
2022/07/07 05:53:08;;;;;;;2.15;1.00;;;18.90;77.20;;;;;;5114202;28;20032;-74
2022/07/07 05:55:34;;;;;;;2.88;1.20;;;18.90;77.10;;;;;;5113877;28;20051;-75
2022/07/07 05:58:00;;;;;;;3.97;1.30;;;18.90;77.20;;;;;;5114295;28;20032;-75
2022/07/07 06:00:27;;;;;;;3.28;1.10;;;18.90;77.00;;;;;;5114093;28;20028;-74
2022/07/07 06:02:53;;;;;;;4.40;1.15;;;18.90;77.20;;;;;;5114154;28;20016;-75
2022/07/07 06:05:19;;;;;;;3.17;1.20;;;18.80;77.60;;;;;;5113959;28;20035;-75
2022/07/07 06:07:44;;;;;;;3.45;1.05;;;18.70;77.70;;;;;;5114013;28;20020;-75
2022/07/07 06:10:11;;;;;;;4.28;0.90;;;18.70;77.60;;;;;;5113959;28;20039;-74
2022/07/07 06:12:41;;;;;;;3.08;0.80;;;18.60;77.50;;;;;;5113897;28;20028;-74
2022/07/07 06:15:07;;;;;;;2.90;0.90;;;18.60;77.40;;;;;;5113798;28;20039;-74
2022/07/07 06:17:33;;;;;;;5.20;1.00;;;18.70;77.70;;;;;;5113863;28;20020;-75
2022/07/07 06:19:59;;;;;;;3.60;1.23;;;18.70;77.90;;;;;;5113796;28;20097;-74
2022/07/07 06:22:26;;;;;;;2.20;0.85;;;18.60;77.90;;;;;;5113744;28;20076;-75
2022/07/07 06:24:52;;;;;;;2.65;1.10;;;18.70;77.90;;;;;;5113697;28;20074;-74
2022/07/07 06:27:18;;;;;;;1.95;1.20;;;18.70;77.80;;;;;;5113712;28;20080;-74
2022/07/07 06:29:44;;;;;;;2.25;0.98;;;18.70;78.40;;;;;;5113569;28;20046;-74
2022/07/07 06:32:10;;;;;;;4.10;0.85;;;18.70;78.00;;;;;;5113662;28;20080;-75
2022/07/07 06:34:36;;;;;;;2.88;1.00;;;18.80;78.00;;;;;;5113601;28;20017;-75
2022/07/07 06:37:02;;;;;;;4.05;1.20;;;18.80;77.50;;;;;;5113476;28;20082;-74
2022/07/07 06:39:27;;;;;;;4.60;1.27;;;18.90;77.10;;;;;;5095645;28;20065;-75
2022/07/07 06:41:53;;;;;;;5.95;1.10;;;18.90;77.00;;;;;;5113673;28;20028;-75
2022/07/07 06:44:19;;;;;;;6.45;1.02;;;19.00;76.20;;;;;;5095656;28;20028;-75
2022/07/07 06:46:44;;;;;;;3.70;1.45;;;18.90;75.90;;;;;;5113644;28;20074;-75
2022/07/07 06:49:10;;;;;;;4.07;0.98;;;18.90;75.60;;;;;;5117109;28;20032;-75
2022/07/07 06:51:35;;;;;;;5.55;1.50;;;19.00;75.50;;;;;;5117702;28;20036;-76
2022/07/07 06:54:01;;;;;;;3.15;1.00;;;19.10;75.40;;;;;;5117438;28;20028;-75
2022/07/07 06:56:27;;;;;;;3.90;1.00;;;19.10;75.90;;;;;;5117584;28;20066;-75
2022/07/07 06:58:53;;;;;;;3.60;0.80;;;19.00;74.60;;;;;;5099761;28;20031;-75
2022/07/07 07:01:18;;;;;;;4.07;0.70;;;18.90;74.30;;;;;;5117548;28;20020;-75
2022/07/07 07:03:44;;;;;;;5.88;1.40;;;18.80;74.40;;;;;;5099514;28;20498;-75
2022/07/07 07:06:10;;;;;;;4.75;1.00;;;18.70;74.60;;;;;;5117462;28;20039;-75
2022/07/07 07:08:36;;;;;;;2.45;0.80;;;18.70;75.00;;;;;;5117365;28;20028;-75
2022/07/07 07:11:03;;;;;;;2.05;0.88;;;18.70;75.40;;;;;;5117316;28;20041;-75
2022/07/07 07:13:30;;;;;;;0.82;0.50;;;18.70;75.50;;;;;;5117285;28;20020;-75
2022/07/07 07:15:55;;;;;;;2.03;0.57;;;18.70;75.60;;;;;;5099514;28;20028;-74
2022/07/07 07:18:21;;;;;;;2.05;0.60;;;18.60;75.50;;;;;;5117203;28;20039;-75
2022/07/07 07:20:46;;;;;;;2.50;0.90;;;18.70;75.40;;;;;;5117318;28;20048;-75
2022/07/07 07:23:12;;;;;;;3.20;0.80;;;18.70;75.60;;;;;;5117146;28;20057;-74
2022/07/07 07:25:38;;;;;;;4.30;0.90;;;18.80;75.60;;;;;;5117184;28;20024;-75
2022/07/07 07:28:03;;;;;;;1.83;0.77;;;18.80;75.90;;;;;;5116859;28;20032;-75
2022/07/07 07:30:29;;;;;;;4.60;0.70;;;18.90;75.80;;;;;;5116937;28;20028;-75
2022/07/07 07:32:55;;;;;;;2.22;0.70;;;18.90;75.40;;;;;;5116906;28;20020;-75
2022/07/07 07:35:20;;;;;;;3.05;0.75;;;18.90;74.80;;;;;;5116794;28;20089;-74
2022/07/07 07:37:46;;;;;;;2.78;0.80;;;18.90;74.70;;;;;;5116878;28;20070;-76
2022/07/07 07:40:12;;;;;;;4.47;0.93;;;18.90;74.60;;;;;;5116757;28;20021;-75
2022/07/07 07:42:39;;;;;;;4.13;1.60;;;18.90;75.00;;;;;;5116866;28;20028;-75
2022/07/07 07:45:11;;;;;;;3.70;1.20;;;18.90;74.80;;;;;;5116726;28;20080;-74
2022/07/07 07:47:43;;;;;;;3.38;0.80;;;18.90;74.70;;;;;;5098719;28;20024;-75
2022/07/07 07:50:12;;;;;;;2.55;0.80;;;19.00;75.20;;;;;;5116600;28;20024;-75
2022/07/07 07:52:39;;;;;;;2.47;0.90;;;18.90;74.90;;;;;;5116510;28;20034;-74
2022/07/07 07:55:07;;;;;;;2.65;0.70;;;18.90;74.40;;;;;;5116238;28;20044;-74
2022/07/07 07:57:32;;;;;;;1.38;0.65;;;18.80;74.00;;;;;;5116473;28;20032;-75
2022/07/07 07:59:58;;;;;;;5.13;0.82;;;18.80;75.20;;;;;;5115985;28;20016;-75
2022/07/07 08:02:24;;;;;;;2.60;0.55;;;18.80;74.60;;;;;;5116359;28;20028;-74
2022/07/07 08:04:50;;;;;;;3.80;0.70;;;18.90;74.50;;;;;;5116349;28;20044;-74
2022/07/07 08:07:15;;;;;;;3.78;1.20;;;19.00;73.80;;;;;;5116242;28;20030;-73
2022/07/07 08:09:41;;;;;;;2.90;0.88;;;19.10;73.80;;;;;;5116214;28;20031;-74
2022/07/07 08:12:07;;;;;;;2.30;0.57;;;19.10;73.40;;;;;;5116206;28;20028;-73
2022/07/07 08:14:32;;;;;;;2.75;0.63;;;19.20;72.60;;;;;;5116103;28;20027;-74
2022/07/07 08:16:58;;;;;;;5.93;0.52;;;19.30;72.30;;;;;;5116023;28;20024;-74
2022/07/07 08:19:24;;;;;;;1.85;0.50;;;19.40;72.30;;;;;;5116180;28;20024;-74
2022/07/07 08:21:50;;;;;;;2.08;0.55;;;19.50;72.30;;;;;;5115991;28;20038;-74
2022/07/07 08:24:17;;;;;;;2.40;0.70;;;19.60;72.10;;;;;;5116068;28;20024;-74
2022/07/07 08:26:42;;;;;;;4.35;0.60;;;19.60;71.60;;;;;;5115915;28;20054;-74
2022/07/07 08:29:08;;;;;;;3.85;0.52;;;19.60;71.30;;;;;;5115797;28;20036;-74
2022/07/07 08:31:34;;;;;;;5.20;1.20;;;19.60;70.80;;;;;;5115799;28;20032;-75
2022/07/07 08:33:59;;;;;;;1.80;0.60;;;19.50;70.70;;;;;;5115743;28;20039;-75
2022/07/07 08:36:25;;;;;;;6.63;0.80;;;19.50;70.50;;;;;;5115636;28;20081;-74
2022/07/07 08:38:50;;;;;;;3.58;0.68;;;19.50;70.30;;;;;;5115666;28;20032;-74
2022/07/07 08:41:16;;;;;;;2.83;0.60;;;19.60;70.30;;;;;;5115637;28;20020;-75
2022/07/07 08:43:42;;;;;;;3.72;0.70;;;19.70;69.80;;;;;;5115564;28;20115;-74
2022/07/07 08:46:09;;;;;;;3.65;1.13;;;19.70;70.20;;;;;;5115489;28;20058;-74
2022/07/07 08:48:35;;;;;;;2.65;0.50;;;19.80;70.20;;;;;;5115473;28;20041;-75
2022/07/07 08:51:04;;;;;;;2.20;0.73;;;19.80;69.10;;;;;;5115467;28;20020;-75
2022/07/07 08:53:33;;;;;;;1.92;0.85;;;19.80;68.20;;;;;;5115370;28;20024;-75
2022/07/07 08:56:04;;;;;;;2.10;1.00;;;19.90;68.40;;;;;;5115084;28;20036;-75
2022/07/07 08:58:31;;;;;;;4.35;1.13;;;19.80;68.60;;;;;;5115288;28;20016;-75
2022/07/07 09:00:56;;;;;;;4.03;0.80;;;19.80;68.60;;;;;;5115243;28;20020;-75
2022/07/07 09:03:22;;;;;;;3.58;1.05;;;19.70;69.00;;;;;;5115190;28;20032;-75
2022/07/07 09:05:48;;;;;;;2.85;0.90;;;19.60;69.40;;;;;;5097420;28;20036;-75
2022/07/07 09:08:22;;;;;;;3.75;1.15;;;19.70;69.40;;;;;;5115011;28;20028;-75
2022/07/07 09:10:48;;;;;;;2.35;0.90;;;19.70;69.80;;;;;;5114227;28;20092;-75
2022/07/07 09:13:26;;;;;;;1.98;0.73;;;19.70;70.00;;;;;;5114995;28;20044;-75
2022/07/07 09:15:57;;;;;;;2.35;0.70;;;19.70;69.90;;;;;;5115068;28;20433;-76
2022/07/07 09:18:34;;;;;;;2.30;0.90;;;19.70;70.00;;;;;;5114920;28;20482;-75
2022/07/07 09:21:02;;;;;;;3.05;1.08;;;19.60;69.80;;;;;;5115064;28;20043;-76
2022/07/07 09:23:28;;;;;;;1.88;0.88;;;19.60;70.30;;;;;;5114824;28;20020;-75
2022/07/07 09:25:54;;;;;;;4.55;0.90;;;19.40;70.70;;;;;;5114769;28;20031;-75
2022/07/07 09:28:20;;;;;;;3.75;1.20;;;19.40;71.00;;;;;;5114654;28;20079;-75
2022/07/07 09:30:47;;;;;;;2.10;0.82;;;19.40;71.50;;;;;;5114426;28;20020;-75
2022/07/07 09:33:18;;;;;;;3.13;0.70;;;19.30;71.60;;;;;;5114648;28;20121;-76
2022/07/07 09:38:31;;;;;;;2.95;0.68;;;19.40;71.30;;;;;;5114681;28;20081;-75
2022/07/07 09:40:59;;;;;;;2.97;0.60;;;19.40;71.10;;;;;;5114493;28;20050;-75
2022/07/07 09:43:33;;;;;;;1.75;0.55;;;19.50;70.80;;;;;;5114409;28;20036;-75
2022/07/07 09:46:24;;;;;;;4.10;0.95;;;19.50;69.70;;;;;;5114465;28;20079;-75
2022/07/07 09:48:53;;;;;;;2.83;0.98;;;19.50;68.90;;;;;;5114374;28;20032;-75
2022/07/07 09:51:22;;;;;;;2.15;0.45;;;19.50;69.10;;;;;;5114296;28;20077;-75
2022/07/07 09:54:00;;;;;;;2.17;0.50;;;19.60;68.90;;;;;;5096341;28;20024;-75
2022/07/07 09:56:29;;;;;;;2.67;0.68;;;19.50;69.30;;;;;;5114192;28;20063;-75
2022/07/07 09:58:55;;;;;;;2.25;0.60;;;19.60;68.70;;;;;;5114110;28;20020;-75
2022/07/07 10:01:25;;;;;;;2.42;0.60;;;19.70;68.60;;;;;;5114240;28;20048;-75
2022/07/07 10:03:56;;;;;;;4.78;0.93;;;19.70;69.10;;;;;;5114124;28;20031;-75
2022/07/07 10:06:23;;;;;;;1.73;0.50;;;19.80;68.20;;;;;;5114083;28;20110;-75
2022/07/07 10:08:56;;;;;;;4.32;0.70;;;19.90;68.30;;;;;;5114012;28;20032;-75
2022/07/07 10:11:23;;;;;;;2.35;0.40;;;19.90;68.20;;;;;;5114136;28;20043;-75
2022/07/07 10:13:50;;;;;;;1.30;0.35;;;19.90;68.20;;;;;;5113937;28;20024;-75
2022/07/07 10:16:16;;;;;;;1.60;0.22;;;19.80;69.60;;;;;;5096045;28;20052;-75
2022/07/07 10:18:43;;;;;;;0.60;0.40;;;19.80;69.00;;;;;;5113846;28;20034;-75
2022/07/07 10:21:09;;;;;;;1.10;0.40;;;19.70;68.90;;;;;;5113635;28;20024;-75
2022/07/07 10:23:35;;;;;;;1.75;0.50;;;19.70;69.30;;;;;;5113766;28;20028;-75
2022/07/07 10:26:02;;;;;;;0.52;0.40;;;19.70;69.50;;;;;;5113760;28;20027;-75
2022/07/07 10:28:50;;;;;;;1.15;0.52;;;19.80;69.80;;;;;;5113672;28;20019;-75
2022/07/07 10:31:23;;;;;;;1.27;0.60;;;19.90;69.50;;;;;;5113809;28;20027;-75
2022/07/07 10:34:06;;;;;;;2.40;0.60;;;19.90;70.10;;;;;;5095574;28;20032;-75
2022/07/07 10:36:49;;;;;;;1.35;0.60;;;20.00;69.70;;;;;;5113566;28;20039;-75
2022/07/07 10:39:22;;;;;;;3.47;0.70;;;20.10;69.20;;;;;;5113603;28;20058;-75
2022/07/07 10:42:17;;;;;;;1.95;0.70;;;20.10;68.80;;;;;;5113652;28;20016;-75
2022/07/07 10:44:51;;;;;;;6.32;1.08;;;20.10;69.20;;;;;;5113579;28;20054;-74
2022/07/07 10:47:16;;;;;;;3.15;0.80;;;20.20;69.10;;;;;;5113502;28;20028;-74
2022/07/07 10:49:48;;;;;;;2.90;0.80;;;20.20;69.10;;;;;;5095583;28;20036;-74
2022/07/07 10:52:19;;;;;;;2.38;0.70;;;20.20;68.50;;;;;;5095599;28;20020;-74
2022/07/07 10:54:49;;;;;;;4.30;0.70;;;20.20;68.20;;;;;;5113247;28;20062;-75
2022/07/07 10:57:27;;;;;;;1.27;0.70;;;20.20;68.20;;;;;;5113433;28;20034;-74
2022/07/07 10:59:59;;;;;;;3.10;0.68;;;20.10;69.10;;;;;;5113425;28;20099;-74
2022/07/07 11:02:57;;;;;;;0.98;0.60;;;20.00;69.20;;;;;;5113467;28;20043;-74
2022/07/07 11:05:28;;;;;;;2.20;0.70;;;19.90;69.60;;;;;;5057900;28;20040;-75
2022/07/07 11:07:56;;;;;;;2.97;0.65;;;19.90;70.30;;;;;;5113319;28;20088;-75
2022/07/07 11:10:44;;;;;;;1.33;0.60;;;19.80;70.60;;;;;;5113299;28;20083;-75
2022/07/07 11:13:16;;;;;;;2.20;0.60;;;19.90;70.50;;;;;;5113447;28;20024;-74
2022/07/07 11:15:42;;;;;;;4.30;0.77;;;19.90;70.60;;;;;;5113207;28;20093;-74
2022/07/07 11:18:11;;;;;;;1.80;0.60;;;19.90;70.30;;;;;;5113243;28;20024;-75
2022/07/07 11:20:51;;;;;;;0.40;0.40;;;20.10;70.20;;;;;;5113198;28;20020;-74
2022/07/07 11:23:17;;;;;;;0.57;0.43;;;20.30;69.80;;;;;;5113204;28;20029;-74
2022/07/07 11:25:42;;;;;;;1.35;0.73;;;20.40;69.40;;;;;;5113102;28;20032;-74
2022/07/07 11:28:10;;;;;;;0.98;0.73;;;20.50;67.40;;;;;;5113078;28;20024;-74
2022/07/07 11:30:37;;;;;;;0.85;0.57;;;20.60;68.50;;;;;;5113088;28;20043;-75
2022/07/07 11:33:03;;;;;;;1.75;0.60;;;20.60;67.60;;;;;;5113093;28;20035;-74
2022/07/07 11:35:37;;;;;;;1.55;0.52;;;20.70;67.60;;;;;;5116752;28;20032;-74
2022/07/07 11:38:12;;;;;;;0.55;0.43;;;20.60;67.20;;;;;;5116929;28;20012;-74
2022/07/07 11:40:40;;;;;;;2.22;0.75;;;20.60;66.40;;;;;;5117007;28;20028;-75
2022/07/07 11:43:06;;;;;;;0.85;0.60;;;20.50;67.30;;;;;;5116779;28;20031;-74
2022/07/07 11:45:32;;;;;;;1.35;0.57;;;20.50;68.10;;;;;;5116709;28;20068;-75
2022/07/07 11:48:01;;;;;;;2.20;1.00;;;20.40;68.70;;;;;;5116678;28;20028;-75
2022/07/07 11:50:31;;;;;;;2.92;0.95;;;20.40;69.80;;;;;;5116634;28;20059;-75
2022/07/07 11:52:58;;;;;;;1.40;0.90;;;20.30;70.60;;;;;;5116596;28;20020;-74
2022/07/07 11:55:24;;;;;;;2.35;1.00;;;20.20;70.70;;;;;;5116303;28;20043;-74
2022/07/07 11:57:52;;;;;;;1.88;1.15;;;20.10;71.40;;;;;;5116633;28;20024;-74
2022/07/07 12:00:24;;;;;;;4.03;1.20;;;20.10;72.00;;;;;;5116460;28;20024;-74
2022/07/07 12:02:52;;;;;;;3.05;1.08;;;20.10;72.50;;;;;;5116439;28;20017;-73
2022/07/07 12:05:20;;;;;;;2.83;1.10;;;20.00;73.00;;;;;;5116360;28;20046;-74
2022/07/07 12:08:06;;;;;;;3.00;1.20;;;20.00;73.50;;;;;;5116288;28;20024;-74
2022/07/07 12:10:37;;;;;;;1.13;0.68;;;20.10;74.50;;;;;;5116306;28;20028;-74
2022/07/07 12:13:05;;;;;;;2.13;0.90;;;20.10;74.00;;;;;;5098284;28;20030;-74
2022/07/07 12:15:34;;;;;;;2.15;0.82;;;20.20;73.80;;;;;;5116226;28;20039;-74
2022/07/07 12:18:02;;;;;;;3.75;1.20;;;20.30;73.50;;;;;;5098213;28;20027;-75
2022/07/07 12:20:28;;;;;;;4.60;1.20;;;20.40;72.70;;;;;;5116055;28;20073;-75
2022/07/07 12:22:56;;;;;;;2.15;1.15;;;20.40;72.10;;;;;;5115901;28;20029;-74
2022/07/07 12:25:28;;;;;;;3.00;1.10;;;20.40;71.70;;;;;;5115795;28;20028;-74
2022/07/07 12:28:05;;;;;;;2.28;1.30;;;20.40;71.20;;;;;;5115870;28;20024;-74
2022/07/07 12:30:33;;;;;;;2.53;0.95;;;20.50;71.50;;;;;;5115882;28;20020;-75
2022/07/07 12:32:59;;;;;;;1.83;1.00;;;20.50;71.40;;;;;;5115777;28;20051;-75
2022/07/07 12:35:26;;;;;;;3.42;0.80;;;20.60;70.90;;;;;;5097893;28;20020;-75
2022/07/07 12:37:52;;;;;;;2.00;0.93;;;20.60;69.80;;;;;;5115717;28;20047;-74
2022/07/07 12:40:18;;;;;;;2.80;1.00;;;20.70;69.90;;;;;;5115692;28;20035;-74
2022/07/07 12:42:47;;;;;;;2.80;1.08;;;20.70;69.70;;;;;;5115625;28;20012;-74
2022/07/07 12:45:14;;;;;;;1.85;0.90;;;20.70;69.30;;;;;;5114450;28;20424;-75
2022/07/07 12:47:58;;;;;;;3.60;0.93;;;20.70;68.40;;;;;;5115719;28;20020;-75